sensor_id;sensor_type;location;lat;lon;timestamp;temperature;humidity
55369;DHT22;41247;49.736;8.752;2022-07-30T00:03:10;16.50;99.90
55369;DHT22;41247;49.736;8.752;2022-07-30T00:06:51;16.50;99.90
55369;DHT22;41247;49.736;8.752;2022-07-30T00:10:32;16.50;99.90
55369;DHT22;41247;49.736;8.752;2022-07-30T00:14:12;16.50;99.90
55369;DHT22;41247;49.736;8.752;2022-07-30T00:17:53;16.40;99.90
55369;DHT22;41247;49.736;8.752;2022-07-30T00:21:33;16.30;99.90
55369;DHT22;41247;49.736;8.752;2022-07-30T00:25:16;16.30;99.90
55369;DHT22;41247;49.736;8.752;2022-07-30T00:28:57;16.20;99.90
55369;DHT22;41247;49.736;8.752;2022-07-30T00:32:37;16.10;99.90
55369;DHT22;41247;49.736;8.752;2022-07-30T00:36:18;16.10;99.90
55369;DHT22;41247;49.736;8.752;2022-07-30T00:39:59;16.00;99.90
55369;DHT22;41247;49.736;8.752;2022-07-30T00:43:40;15.90;99.90
55369;DHT22;41247;49.736;8.752;2022-07-30T00:47:20;15.90;99.90
55369;DHT22;41247;49.736;8.752;2022-07-30T00:51:01;15.80;99.90
55369;DHT22;41247;49.736;8.752;2022-07-30T00:54:41;15.70;99.90
55369;DHT22;41247;49.736;8.752;2022-07-30T00:58:22;15.60;99.90
55369;DHT22;41247;49.736;8.752;2022-07-30T01:02:03;15.60;99.90
55369;DHT22;41247;49.736;8.752;2022-07-30T01:05:43;15.50;99.90
55369;DHT22;41247;49.736;8.752;2022-07-30T01:09:24;15.50;99.90
55369;DHT22;41247;49.736;8.752;2022-07-30T01:13:05;15.40;99.90
55369;DHT22;41247;49.736;8.752;2022-07-30T01:16:46;15.40;99.90
55369;DHT22;41247;49.736;8.752;2022-07-30T01:20:35;15.30;99.90
55369;DHT22;41247;49.736;8.752;2022-07-30T01:24:39;15.30;99.90
55369;DHT22;41247;49.736;8.752;2022-07-30T01:28:25;15.30;99.90
55369;DHT22;41247;49.736;8.752;2022-07-30T01:32:12;15.20;99.90
55369;DHT22;41247;49.736;8.752;2022-07-30T01:35:54;15.10;99.90
55369;DHT22;41247;49.736;8.752;2022-07-30T01:39:36;15.10;99.90
55369;DHT22;41247;49.736;8.752;2022-07-30T01:43:20;15.00;99.90
55369;DHT22;41247;49.736;8.752;2022-07-30T01:47:02;15.00;99.90
55369;DHT22;41247;49.736;8.752;2022-07-30T01:50:45;15.00;99.90
55369;DHT22;41247;49.736;8.752;2022-07-30T01:54:29;14.90;99.90
55369;DHT22;41247;49.736;8.752;2022-07-30T01:58:12;14.90;99.90
55369;DHT22;41247;49.736;8.752;2022-07-30T02:01:57;14.80;99.90
55369;DHT22;41247;49.736;8.752;2022-07-30T02:05:40;14.70;99.90
55369;DHT22;41247;49.736;8.752;2022-07-30T02:09:36;14.70;99.90
55369;DHT22;41247;49.736;8.752;2022-07-30T02:13:22;14.60;99.90
55369;DHT22;41247;49.736;8.752;2022-07-30T02:17:07;14.50;99.90
55369;DHT22;41247;49.736;8.752;2022-07-30T02:20:56;14.50;99.90
55369;DHT22;41247;49.736;8.752;2022-07-30T02:24:41;14.40;99.90
55369;DHT22;41247;49.736;8.752;2022-07-30T02:28:23;14.40;99.90
55369;DHT22;41247;49.736;8.752;2022-07-30T02:32:08;14.30;99.90
55369;DHT22;41247;49.736;8.752;2022-07-30T02:35:50;14.30;99.90
55369;DHT22;41247;49.736;8.752;2022-07-30T02:39:33;14.20;99.90
55369;DHT22;41247;49.736;8.752;2022-07-30T02:43:14;14.20;99.90
55369;DHT22;41247;49.736;8.752;2022-07-30T02:46:56;14.20;99.90
55369;DHT22;41247;49.736;8.752;2022-07-30T02:50:38;14.10;99.90
55369;DHT22;41247;49.736;8.752;2022-07-30T02:54:20;14.10;99.90
55369;DHT22;41247;49.736;8.752;2022-07-30T02:58:03;14.10;99.90
55369;DHT22;41247;49.736;8.752;2022-07-30T03:01:46;14.00;99.90
55369;DHT22;41247;49.736;8.752;2022-07-30T03:05:27;14.00;99.90
55369;DHT22;41247;49.736;8.752;2022-07-30T03:09:09;14.00;99.90
55369;DHT22;41247;49.736;8.752;2022-07-30T03:12:50;13.90;99.90
55369;DHT22;41247;49.736;8.752;2022-07-30T03:16:33;13.90;99.90
55369;DHT22;41247;49.736;8.752;2022-07-30T03:20:18;13.90;99.90
55369;DHT22;41247;49.736;8.752;2022-07-30T03:24:01;13.90;99.90
55369;DHT22;41247;49.736;8.752;2022-07-30T03:27:43;13.90;99.90
55369;DHT22;41247;49.736;8.752;2022-07-30T03:31:25;13.90;99.90
55369;DHT22;41247;49.736;8.752;2022-07-30T03:35:07;13.90;99.90
55369;DHT22;41247;49.736;8.752;2022-07-30T03:38:48;13.90;99.90
55369;DHT22;41247;49.736;8.752;2022-07-30T03:42:30;13.90;99.90
55369;DHT22;41247;49.736;8.752;2022-07-30T03:46:12;14.00;99.90
55369;DHT22;41247;49.736;8.752;2022-07-30T03:49:53;14.00;99.90
55369;DHT22;41247;49.736;8.752;2022-07-30T03:53:34;14.00;99.90
55369;DHT22;41247;49.736;8.752;2022-07-30T03:57:15;14.00;99.90
55369;DHT22;41247;49.736;8.752;2022-07-30T04:00:55;14.00;99.90
55369;DHT22;41247;49.736;8.752;2022-07-30T04:04:40;14.10;99.90
55369;DHT22;41247;49.736;8.752;2022-07-30T04:08:21;14.10;99.90
55369;DHT22;41247;49.736;8.752;2022-07-30T04:12:02;14.00;99.90
55369;DHT22;41247;49.736;8.752;2022-07-30T04:16:01;13.90;99.90
55369;DHT22;41247;49.736;8.752;2022-07-30T04:19:51;13.90;99.90
55369;DHT22;41247;49.736;8.752;2022-07-30T04:23:32;13.90;99.90
55369;DHT22;41247;49.736;8.752;2022-07-30T04:27:14;13.90;99.90
55369;DHT22;41247;49.736;8.752;2022-07-30T04:30:55;13.90;99.90
55369;DHT22;41247;49.736;8.752;2022-07-30T04:34:36;13.90;99.90
55369;DHT22;41247;49.736;8.752;2022-07-30T04:38:16;13.90;99.90
55369;DHT22;41247;49.736;8.752;2022-07-30T04:41:57;14.00;99.90
55369;DHT22;41247;49.736;8.752;2022-07-30T04:45:39;14.00;99.90
55369;DHT22;41247;49.736;8.752;2022-07-30T04:49:21;14.00;99.90
55369;DHT22;41247;49.736;8.752;2022-07-30T04:53:02;14.00;99.90
55369;DHT22;41247;49.736;8.752;2022-07-30T04:56:45;14.10;99.90
55369;DHT22;41247;49.736;8.752;2022-07-30T05:00:27;14.10;99.90
55369;DHT22;41247;49.736;8.752;2022-07-30T05:04:09;14.10;99.90
55369;DHT22;41247;49.736;8.752;2022-07-30T05:07:51;14.20;99.90
55369;DHT22;41247;49.736;8.752;2022-07-30T05:11:32;14.20;99.90
55369;DHT22;41247;49.736;8.752;2022-07-30T05:15:13;14.30;99.90
55369;DHT22;41247;49.736;8.752;2022-07-30T05:18:53;14.30;99.90
55369;DHT22;41247;49.736;8.752;2022-07-30T05:22:34;14.40;99.90
55369;DHT22;41247;49.736;8.752;2022-07-30T05:26:18;14.40;99.90
55369;DHT22;41247;49.736;8.752;2022-07-30T05:30:00;14.50;99.90
55369;DHT22;41247;49.736;8.752;2022-07-30T05:33:41;14.50;99.90
55369;DHT22;41247;49.736;8.752;2022-07-30T05:37:21;14.60;99.90
55369;DHT22;41247;49.736;8.752;2022-07-30T05:41:02;14.60;99.90
55369;DHT22;41247;49.736;8.752;2022-07-30T05:44:42;14.70;99.90
55369;DHT22;41247;49.736;8.752;2022-07-30T05:48:23;14.70;99.90
55369;DHT22;41247;49.736;8.752;2022-07-30T05:52:04;14.80;99.90
55369;DHT22;41247;49.736;8.752;2022-07-30T05:55:45;14.90;99.90
55369;DHT22;41247;49.736;8.752;2022-07-30T05:59:25;15.00;99.90
55369;DHT22;41247;49.736;8.752;2022-07-30T06:03:06;15.20;99.90
55369;DHT22;41247;49.736;8.752;2022-07-30T06:06:46;15.30;99.90
55369;DHT22;41247;49.736;8.752;2022-07-30T06:10:27;15.40;99.90
55369;DHT22;41247;49.736;8.752;2022-07-30T06:14:08;15.50;99.90
55369;DHT22;41247;49.736;8.752;2022-07-30T06:17:49;15.70;99.90
55369;DHT22;41247;49.736;8.752;2022-07-30T06:21:29;15.80;99.90
55369;DHT22;41247;49.736;8.752;2022-07-30T06:25:10;15.90;99.90
55369;DHT22;41247;49.736;8.752;2022-07-30T06:28:51;16.10;99.90
55369;DHT22;41247;49.736;8.752;2022-07-30T06:32:31;16.30;99.90
55369;DHT22;41247;49.736;8.752;2022-07-30T06:36:12;16.40;99.90
55369;DHT22;41247;49.736;8.752;2022-07-30T06:39:53;16.60;99.90
55369;DHT22;41247;49.736;8.752;2022-07-30T06:43:34;16.90;99.90
55369;DHT22;41247;49.736;8.752;2022-07-30T06:47:19;17.10;99.90
55369;DHT22;41247;49.736;8.752;2022-07-30T06:51:00;17.50;99.90
55369;DHT22;41247;49.736;8.752;2022-07-30T06:54:41;17.80;99.90
55369;DHT22;41247;49.736;8.752;2022-07-30T06:58:21;18.10;99.90
55369;DHT22;41247;49.736;8.752;2022-07-30T07:02:02;18.50;99.90
55369;DHT22;41247;49.736;8.752;2022-07-30T07:05:43;18.80;99.90
55369;DHT22;41247;49.736;8.752;2022-07-30T07:09:23;19.00;99.90
55369;DHT22;41247;49.736;8.752;2022-07-30T07:13:04;19.20;99.90
55369;DHT22;41247;49.736;8.752;2022-07-30T07:16:44;19.40;99.90
55369;DHT22;41247;49.736;8.752;2022-07-30T07:20:25;19.60;99.90
55369;DHT22;41247;49.736;8.752;2022-07-30T07:24:06;19.80;99.90
55369;DHT22;41247;49.736;8.752;2022-07-30T07:27:47;20.00;99.90
55369;DHT22;41247;49.736;8.752;2022-07-30T07:31:27;20.20;99.90
55369;DHT22;41247;49.736;8.752;2022-07-30T07:35:08;20.40;99.90
55369;DHT22;41247;49.736;8.752;2022-07-30T07:38:49;20.60;99.90
55369;DHT22;41247;49.736;8.752;2022-07-30T07:42:30;20.80;99.90
55369;DHT22;41247;49.736;8.752;2022-07-30T07:46:10;21.00;99.90
55369;DHT22;41247;49.736;8.752;2022-07-30T07:49:54;21.10;99.90
55369;DHT22;41247;49.736;8.752;2022-07-30T07:53:35;21.30;99.90
55369;DHT22;41247;49.736;8.752;2022-07-30T07:57:15;21.20;99.90
55369;DHT22;41247;49.736;8.752;2022-07-30T08:00:56;21.00;99.90
55369;DHT22;41247;49.736;8.752;2022-07-30T08:04:36;20.90;99.90
55369;DHT22;41247;49.736;8.752;2022-07-30T08:08:17;21.00;99.90
55369;DHT22;41247;49.736;8.752;2022-07-30T08:11:58;20.90;99.90
55369;DHT22;41247;49.736;8.752;2022-07-30T08:15:38;21.20;99.90
55369;DHT22;41247;49.736;8.752;2022-07-30T08:19:19;21.50;99.90
55369;DHT22;41247;49.736;8.752;2022-07-30T08:23:00;21.80;99.90
55369;DHT22;41247;49.736;8.752;2022-07-30T08:26:41;22.00;99.90
55369;DHT22;41247;49.736;8.752;2022-07-30T08:30:21;21.90;99.90
55369;DHT22;41247;49.736;8.752;2022-07-30T08:34:02;21.90;99.90
55369;DHT22;41247;49.736;8.752;2022-07-30T08:37:43;22.20;99.90
55369;DHT22;41247;49.736;8.752;2022-07-30T08:41:24;22.40;99.90
55369;DHT22;41247;49.736;8.752;2022-07-30T08:45:06;22.60;99.90
55369;DHT22;41247;49.736;8.752;2022-07-30T08:48:50;22.60;99.90
55369;DHT22;41247;49.736;8.752;2022-07-30T08:52:31;22.60;99.90
55369;DHT22;41247;49.736;8.752;2022-07-30T08:56:12;22.80;99.90
55369;DHT22;41247;49.736;8.752;2022-07-30T08:59:53;23.00;99.90
55369;DHT22;41247;49.736;8.752;2022-07-30T09:03:34;23.10;99.90
55369;DHT22;41247;49.736;8.752;2022-07-30T09:07:17;23.40;99.90
55369;DHT22;41247;49.736;8.752;2022-07-30T09:10:58;23.60;99.90
55369;DHT22;41247;49.736;8.752;2022-07-30T09:14:47;23.90;99.90
55369;DHT22;41247;49.736;8.752;2022-07-30T09:18:40;23.80;99.90
55369;DHT22;41247;49.736;8.752;2022-07-30T09:22:21;23.70;99.90
55369;DHT22;41247;49.736;8.752;2022-07-30T09:26:02;23.80;99.90
55369;DHT22;41247;49.736;8.752;2022-07-30T09:29:42;23.90;99.90
55369;DHT22;41247;49.736;8.752;2022-07-30T09:40:56;24.50;99.90
55369;DHT22;41247;49.736;8.752;2022-07-30T09:44:37;24.70;99.90
55369;DHT22;41247;49.736;8.752;2022-07-30T09:48:22;24.30;99.90
55369;DHT22;41247;49.736;8.752;2022-07-30T09:52:04;24.10;99.90
55369;DHT22;41247;49.736;8.752;2022-07-30T09:55:45;24.20;99.90
55369;DHT22;41247;49.736;8.752;2022-07-30T09:59:28;24.40;99.90
55369;DHT22;41247;49.736;8.752;2022-07-30T10:03:22;24.60;99.90
55369;DHT22;41247;49.736;8.752;2022-07-30T10:07:03;24.90;99.90
55369;DHT22;41247;49.736;8.752;2022-07-30T10:10:45;25.00;99.90
55369;DHT22;41247;49.736;8.752;2022-07-30T10:14:34;24.90;99.90
55369;DHT22;41247;49.736;8.752;2022-07-30T10:18:16;25.20;99.90
55369;DHT22;41247;49.736;8.752;2022-07-30T10:21:58;25.40;99.90
55369;DHT22;41247;49.736;8.752;2022-07-30T10:25:39;25.70;99.90
55369;DHT22;41247;49.736;8.752;2022-07-30T10:29:21;25.90;99.90
55369;DHT22;41247;49.736;8.752;2022-07-30T10:33:02;25.90;99.90
55369;DHT22;41247;49.736;8.752;2022-07-30T10:36:50;26.00;99.90
55369;DHT22;41247;49.736;8.752;2022-07-30T10:40:36;26.10;99.90
55369;DHT22;41247;49.736;8.752;2022-07-30T10:44:24;26.20;99.90
55369;DHT22;41247;49.736;8.752;2022-07-30T10:48:10;26.40;99.90
55369;DHT22;41247;49.736;8.752;2022-07-30T10:51:51;26.90;99.90
55369;DHT22;41247;49.736;8.752;2022-07-30T10:55:33;27.20;99.90
55369;DHT22;41247;49.736;8.752;2022-07-30T10:59:14;27.60;99.90
55369;DHT22;41247;49.736;8.752;2022-07-30T11:11:49;27.80;99.90
55369;DHT22;41247;49.736;8.752;2022-07-30T11:15:05;28.00;99.90
55369;DHT22;41247;49.736;8.752;2022-07-30T11:19:08;27.50;99.90
55369;DHT22;41247;49.736;8.752;2022-07-30T11:22:49;27.70;99.90
55369;DHT22;41247;49.736;8.752;2022-07-30T11:34:29;29.20;99.90
55369;DHT22;41247;49.736;8.752;2022-07-30T11:38:14;29.00;99.90
55369;DHT22;41247;49.736;8.752;2022-07-30T11:46:11;29.30;99.90
55369;DHT22;41247;49.736;8.752;2022-07-30T11:49:53;29.40;99.90
55369;DHT22;41247;49.736;8.752;2022-07-30T11:53:34;29.30;99.90
55369;DHT22;41247;49.736;8.752;2022-07-30T11:57:15;29.50;99.90
55369;DHT22;41247;49.736;8.752;2022-07-30T12:01:00;29.50;99.90
55369;DHT22;41247;49.736;8.752;2022-07-30T12:04:45;29.90;99.90
55369;DHT22;41247;49.736;8.752;2022-07-30T12:08:26;29.30;99.90
55369;DHT22;41247;49.736;8.752;2022-07-30T12:12:22;28.90;99.90
55369;DHT22;41247;49.736;8.752;2022-07-30T12:16:08;29.40;99.90
55369;DHT22;41247;49.736;8.752;2022-07-30T12:19:55;29.20;99.90
55369;DHT22;41247;49.736;8.752;2022-07-30T12:23:36;29.30;99.90
55369;DHT22;41247;49.736;8.752;2022-07-30T12:27:17;29.20;99.90
55369;DHT22;41247;49.736;8.752;2022-07-30T12:30:59;29.60;99.90
55369;DHT22;41247;49.736;8.752;2022-07-30T12:34:55;30.00;99.90
55369;DHT22;41247;49.736;8.752;2022-07-30T12:38:43;29.40;99.90
55369;DHT22;41247;49.736;8.752;2022-07-30T12:42:24;29.50;99.90
55369;DHT22;41247;49.736;8.752;2022-07-30T12:46:05;29.90;99.90
55369;DHT22;41247;49.736;8.752;2022-07-30T12:49:46;30.30;99.90
55369;DHT22;41247;49.736;8.752;2022-07-30T12:53:30;30.90;99.90
55369;DHT22;41247;49.736;8.752;2022-07-30T12:57:11;31.00;98.70
55369;DHT22;41247;49.736;8.752;2022-07-30T13:00:51;30.80;97.70
55369;DHT22;41247;49.736;8.752;2022-07-30T13:04:32;30.60;99.80
55369;DHT22;41247;49.736;8.752;2022-07-30T13:08:12;30.40;99.20
55369;DHT22;41247;49.736;8.752;2022-07-30T13:11:53;30.70;99.90
55369;DHT22;41247;49.736;8.752;2022-07-30T13:15:34;30.90;97.60
55369;DHT22;41247;49.736;8.752;2022-07-30T13:19:14;30.90;97.20
55369;DHT22;41247;49.736;8.752;2022-07-30T13:22:55;31.10;97.00
55369;DHT22;41247;49.736;8.752;2022-07-30T13:26:36;30.90;96.10
55369;DHT22;41247;49.736;8.752;2022-07-30T13:30:16;30.90;97.40
55369;DHT22;41247;49.736;8.752;2022-07-30T13:33:57;31.20;96.10
55369;DHT22;41247;49.736;8.752;2022-07-30T13:37:38;31.50;96.10
55369;DHT22;41247;49.736;8.752;2022-07-30T13:41:19;31.50;95.10
55369;DHT22;41247;49.736;8.752;2022-07-30T13:45:00;31.50;96.60
55369;DHT22;41247;49.736;8.752;2022-07-30T13:48:40;31.80;94.80
55369;DHT22;41247;49.736;8.752;2022-07-30T13:52:21;32.10;94.60
55369;DHT22;41247;49.736;8.752;2022-07-30T13:56:02;32.20;94.70
55369;DHT22;41247;49.736;8.752;2022-07-30T13:59:43;31.80;93.00
55369;DHT22;41247;49.736;8.752;2022-07-30T14:03:23;31.20;92.70
55369;DHT22;41247;49.736;8.752;2022-07-30T14:07:04;31.20;93.10
55369;DHT22;41247;49.736;8.752;2022-07-30T14:10:44;31.70;95.90
55369;DHT22;41247;49.736;8.752;2022-07-30T14:14:26;32.00;95.90
55369;DHT22;41247;49.736;8.752;2022-07-30T14:18:06;32.40;94.40
55369;DHT22;41247;49.736;8.752;2022-07-30T14:21:47;32.60;93.90
55369;DHT22;41247;49.736;8.752;2022-07-30T14:25:28;32.40;92.80
55369;DHT22;41247;49.736;8.752;2022-07-30T14:29:09;32.60;93.20
55369;DHT22;41247;49.736;8.752;2022-07-30T14:32:50;32.90;93.40
55369;DHT22;41247;49.736;8.752;2022-07-30T14:36:31;33.00;91.80
55369;DHT22;41247;49.736;8.752;2022-07-30T14:40:12;33.40;93.20
55369;DHT22;41247;49.736;8.752;2022-07-30T14:43:52;33.80;93.90
55369;DHT22;41247;49.736;8.752;2022-07-30T14:47:33;34.20;90.90
55369;DHT22;41247;49.736;8.752;2022-07-30T14:51:14;34.10;92.90
55369;DHT22;41247;49.736;8.752;2022-07-30T14:54:55;33.70;92.40
55369;DHT22;41247;49.736;8.752;2022-07-30T14:58:35;33.50;92.50
55369;DHT22;41247;49.736;8.752;2022-07-30T15:02:16;33.50;89.20
55369;DHT22;41247;49.736;8.752;2022-07-30T15:05:57;33.30;91.60
55369;DHT22;41247;49.736;8.752;2022-07-30T15:09:37;33.70;90.70
55369;DHT22;41247;49.736;8.752;2022-07-30T15:13:18;33.90;90.80
55369;DHT22;41247;49.736;8.752;2022-07-30T15:16:58;34.00;90.90
55369;DHT22;41247;49.736;8.752;2022-07-30T15:20:39;33.90;92.10
55369;DHT22;41247;49.736;8.752;2022-07-30T15:24:19;34.30;92.20
55369;DHT22;41247;49.736;8.752;2022-07-30T15:28:00;34.30;91.70
55369;DHT22;41247;49.736;8.752;2022-07-30T15:31:41;34.30;92.30
55369;DHT22;41247;49.736;8.752;2022-07-30T15:35:21;34.20;90.50
55369;DHT22;41247;49.736;8.752;2022-07-30T15:39:02;33.90;88.20
55369;DHT22;41247;49.736;8.752;2022-07-30T15:42:43;33.30;86.30
55369;DHT22;41247;49.736;8.752;2022-07-30T15:46:24;32.30;90.60
55369;DHT22;41247;49.736;8.752;2022-07-30T15:50:05;31.70;91.00
55369;DHT22;41247;49.736;8.752;2022-07-30T15:53:46;31.30;90.30
55369;DHT22;41247;49.736;8.752;2022-07-30T15:57:26;31.00;91.00
55369;DHT22;41247;49.736;8.752;2022-07-30T16:01:07;30.70;92.20
55369;DHT22;41247;49.736;8.752;2022-07-30T16:04:48;30.50;90.60
55369;DHT22;41247;49.736;8.752;2022-07-30T16:08:28;30.50;91.50
55369;DHT22;41247;49.736;8.752;2022-07-30T16:12:09;30.30;91.50
55369;DHT22;41247;49.736;8.752;2022-07-30T16:15:49;30.10;91.40
55369;DHT22;41247;49.736;8.752;2022-07-30T16:19:30;30.10;92.10
55369;DHT22;41247;49.736;8.752;2022-07-30T16:23:11;30.20;92.00
55369;DHT22;41247;49.736;8.752;2022-07-30T16:26:51;30.30;91.80
55369;DHT22;41247;49.736;8.752;2022-07-30T16:30:32;30.30;91.90
55369;DHT22;41247;49.736;8.752;2022-07-30T16:34:12;29.70;91.40
55369;DHT22;41247;49.736;8.752;2022-07-30T16:37:53;29.30;92.00
55369;DHT22;41247;49.736;8.752;2022-07-30T16:41:34;28.80;92.80
55369;DHT22;41247;49.736;8.752;2022-07-30T16:45:15;28.50;93.70
55369;DHT22;41247;49.736;8.752;2022-07-30T16:48:56;28.30;92.70
55369;DHT22;41247;49.736;8.752;2022-07-30T16:52:36;28.10;92.60
55369;DHT22;41247;49.736;8.752;2022-07-30T16:56:17;27.90;92.60
55369;DHT22;41247;49.736;8.752;2022-07-30T16:59:58;27.70;92.70
55369;DHT22;41247;49.736;8.752;2022-07-30T17:03:38;27.50;93.80
55369;DHT22;41247;49.736;8.752;2022-07-30T17:07:19;27.50;93.90
55369;DHT22;41247;49.736;8.752;2022-07-30T17:10:59;27.20;94.50
55369;DHT22;41247;49.736;8.752;2022-07-30T17:14:40;27.20;94.50
55369;DHT22;41247;49.736;8.752;2022-07-30T17:18:21;27.00;93.70
55369;DHT22;41247;49.736;8.752;2022-07-30T17:22:02;26.80;93.80
55369;DHT22;41247;49.736;8.752;2022-07-30T17:25:42;26.60;94.30
55369;DHT22;41247;49.736;8.752;2022-07-30T17:29:23;26.50;94.50
55369;DHT22;41247;49.736;8.752;2022-07-30T17:33:03;26.80;93.30
55369;DHT22;41247;49.736;8.752;2022-07-30T17:36:45;26.80;93.40
55369;DHT22;41247;49.736;8.752;2022-07-30T17:40:26;26.50;93.50
55369;DHT22;41247;49.736;8.752;2022-07-30T17:44:07;26.10;94.20
55369;DHT22;41247;49.736;8.752;2022-07-30T17:47:47;25.90;94.00
55369;DHT22;41247;49.736;8.752;2022-07-30T17:51:28;25.90;93.80
55369;DHT22;41247;49.736;8.752;2022-07-30T17:55:08;26.60;93.30
55369;DHT22;41247;49.736;8.752;2022-07-30T17:58:49;26.60;93.40
55369;DHT22;41247;49.736;8.752;2022-07-30T18:02:30;26.20;93.20
55369;DHT22;41247;49.736;8.752;2022-07-30T18:06:10;25.80;94.30
55369;DHT22;41247;49.736;8.752;2022-07-30T18:09:51;25.30;94.40
55369;DHT22;41247;49.736;8.752;2022-07-30T18:13:31;24.70;95.80
55369;DHT22;41247;49.736;8.752;2022-07-30T18:17:12;24.20;97.80
55369;DHT22;41247;49.736;8.752;2022-07-30T18:20:53;23.70;97.70
55369;DHT22;41247;49.736;8.752;2022-07-30T18:24:33;23.30;99.90
55369;DHT22;41247;49.736;8.752;2022-07-30T18:28:14;22.90;98.80
55369;DHT22;41247;49.736;8.752;2022-07-30T18:31:55;22.50;98.60
55369;DHT22;41247;49.736;8.752;2022-07-30T18:35:35;22.40;98.30
55369;DHT22;41247;49.736;8.752;2022-07-30T18:39:16;22.20;99.10
55369;DHT22;41247;49.736;8.752;2022-07-30T18:42:57;22.10;99.20
55369;DHT22;41247;49.736;8.752;2022-07-30T18:46:38;21.90;99.70
55369;DHT22;41247;49.736;8.752;2022-07-30T18:50:19;21.70;99.90
55369;DHT22;41247;49.736;8.752;2022-07-30T18:53:59;21.50;99.90
55369;DHT22;41247;49.736;8.752;2022-07-30T18:57:40;21.30;99.90
55369;DHT22;41247;49.736;8.752;2022-07-30T19:01:21;21.10;99.90
55369;DHT22;41247;49.736;8.752;2022-07-30T19:05:01;20.90;99.90
55369;DHT22;41247;49.736;8.752;2022-07-30T19:08:42;20.60;99.90
55369;DHT22;41247;49.736;8.752;2022-07-30T19:12:24;20.40;99.90
55369;DHT22;41247;49.736;8.752;2022-07-30T19:16:05;20.10;99.90
55369;DHT22;41247;49.736;8.752;2022-07-30T19:19:46;19.90;99.90
55369;DHT22;41247;49.736;8.752;2022-07-30T19:23:27;19.70;99.90
55369;DHT22;41247;49.736;8.752;2022-07-30T19:27:08;19.50;99.90
55369;DHT22;41247;49.736;8.752;2022-07-30T19:30:48;19.40;99.90
55369;DHT22;41247;49.736;8.752;2022-07-30T19:34:29;19.30;99.90
55369;DHT22;41247;49.736;8.752;2022-07-30T19:38:10;19.10;99.90
55369;DHT22;41247;49.736;8.752;2022-07-30T19:41:51;18.90;99.90
55369;DHT22;41247;49.736;8.752;2022-07-30T19:45:31;18.90;99.90
55369;DHT22;41247;49.736;8.752;2022-07-30T19:49:13;18.80;99.90
55369;DHT22;41247;49.736;8.752;2022-07-30T19:52:54;18.70;99.90
55369;DHT22;41247;49.736;8.752;2022-07-30T19:56:34;18.60;99.90
55369;DHT22;41247;49.736;8.752;2022-07-30T20:00:15;18.50;99.90
55369;DHT22;41247;49.736;8.752;2022-07-30T20:03:56;18.50;99.90
55369;DHT22;41247;49.736;8.752;2022-07-30T20:07:40;18.40;99.90
55369;DHT22;41247;49.736;8.752;2022-07-30T20:11:21;18.40;99.90
55369;DHT22;41247;49.736;8.752;2022-07-30T20:15:03;18.30;99.90
55369;DHT22;41247;49.736;8.752;2022-07-30T20:18:44;18.30;99.90
55369;DHT22;41247;49.736;8.752;2022-07-30T20:22:26;18.20;99.90
55369;DHT22;41247;49.736;8.752;2022-07-30T20:26:07;18.20;99.90
55369;DHT22;41247;49.736;8.752;2022-07-30T20:29:48;18.10;99.90
55369;DHT22;41247;49.736;8.752;2022-07-30T20:33:28;18.00;99.90
55369;DHT22;41247;49.736;8.752;2022-07-30T20:37:09;17.90;99.90
55369;DHT22;41247;49.736;8.752;2022-07-30T20:40:49;17.90;99.90
55369;DHT22;41247;49.736;8.752;2022-07-30T20:44:30;17.90;99.90
55369;DHT22;41247;49.736;8.752;2022-07-30T20:48:11;17.80;99.90
55369;DHT22;41247;49.736;8.752;2022-07-30T20:51:51;17.80;99.90
55369;DHT22;41247;49.736;8.752;2022-07-30T20:55:32;17.70;99.90
55369;DHT22;41247;49.736;8.752;2022-07-30T20:59:12;17.70;99.90
55369;DHT22;41247;49.736;8.752;2022-07-30T21:02:53;17.70;99.90
55369;DHT22;41247;49.736;8.752;2022-07-30T21:06:34;17.60;99.90
55369;DHT22;41247;49.736;8.752;2022-07-30T21:10:14;17.60;99.90
55369;DHT22;41247;49.736;8.752;2022-07-30T21:13:55;17.50;99.90
55369;DHT22;41247;49.736;8.752;2022-07-30T21:17:36;17.40;99.90
55369;DHT22;41247;49.736;8.752;2022-07-30T21:21:17;17.40;99.90
55369;DHT22;41247;49.736;8.752;2022-07-30T21:24:58;17.30;99.90
55369;DHT22;41247;49.736;8.752;2022-07-30T21:28:38;17.30;99.90
55369;DHT22;41247;49.736;8.752;2022-07-30T21:32:19;17.30;99.90
55369;DHT22;41247;49.736;8.752;2022-07-30T21:36:00;17.30;99.90
55369;DHT22;41247;49.736;8.752;2022-07-30T21:39:40;17.20;99.90
55369;DHT22;41247;49.736;8.752;2022-07-30T21:43:21;17.20;99.90
55369;DHT22;41247;49.736;8.752;2022-07-30T21:47:01;17.10;99.90
55369;DHT22;41247;49.736;8.752;2022-07-30T21:50:42;17.10;99.90
55369;DHT22;41247;49.736;8.752;2022-07-30T21:54:23;17.00;99.90
55369;DHT22;41247;49.736;8.752;2022-07-30T21:58:03;17.00;99.90
55369;DHT22;41247;49.736;8.752;2022-07-30T22:01:44;16.90;99.90
55369;DHT22;41247;49.736;8.752;2022-07-30T22:05:25;16.90;99.90
55369;DHT22;41247;49.736;8.752;2022-07-30T22:09:10;16.90;99.90
55369;DHT22;41247;49.736;8.752;2022-07-30T22:12:52;16.80;99.90
55369;DHT22;41247;49.736;8.752;2022-07-30T22:16:32;16.80;99.90
55369;DHT22;41247;49.736;8.752;2022-07-30T22:20:13;16.70;99.90
55369;DHT22;41247;49.736;8.752;2022-07-30T22:23:53;16.70;99.90
55369;DHT22;41247;49.736;8.752;2022-07-30T22:27:34;16.70;99.90
55369;DHT22;41247;49.736;8.752;2022-07-30T22:31:15;16.60;99.90
55369;DHT22;41247;49.736;8.752;2022-07-30T22:34:55;16.60;99.90
55369;DHT22;41247;49.736;8.752;2022-07-30T22:38:36;16.60;99.90
55369;DHT22;41247;49.736;8.752;2022-07-30T22:42:17;16.60;99.90
55369;DHT22;41247;49.736;8.752;2022-07-30T22:45:57;16.60;99.90
55369;DHT22;41247;49.736;8.752;2022-07-30T22:49:38;16.50;99.90
55369;DHT22;41247;49.736;8.752;2022-07-30T22:53:18;16.50;99.90
55369;DHT22;41247;49.736;8.752;2022-07-30T22:56:59;16.50;99.90
55369;DHT22;41247;49.736;8.752;2022-07-30T23:00:40;16.50;99.90
55369;DHT22;41247;49.736;8.752;2022-07-30T23:04:21;16.50;99.90
55369;DHT22;41247;49.736;8.752;2022-07-30T23:08:02;16.40;99.90
55369;DHT22;41247;49.736;8.752;2022-07-30T23:11:43;16.40;99.90
55369;DHT22;41247;49.736;8.752;2022-07-30T23:15:24;16.40;99.90
55369;DHT22;41247;49.736;8.752;2022-07-30T23:19:05;16.40;99.90
55369;DHT22;41247;49.736;8.752;2022-07-30T23:22:46;16.40;99.90
55369;DHT22;41247;49.736;8.752;2022-07-30T23:26:27;16.50;99.90
55369;DHT22;41247;49.736;8.752;2022-07-30T23:30:09;16.50;99.90
55369;DHT22;41247;49.736;8.752;2022-07-30T23:33:50;16.50;99.90
55369;DHT22;41247;49.736;8.752;2022-07-30T23:37:33;16.50;99.90
55369;DHT22;41247;49.736;8.752;2022-07-30T23:41:14;16.50;99.90
55369;DHT22;41247;49.736;8.752;2022-07-30T23:44:55;16.50;99.90
55369;DHT22;41247;49.736;8.752;2022-07-30T23:48:35;16.60;99.90